Doaktown, Canada
Current Conditions -  °F | °C
As of 12:00 PM on Friday 24 Oct 2014 (Local Time) from CYFC Reporting Station
Light Rain Light Rain  
Wind Chill: 40°   Ceiling: 1200
Heat Index: 46°   Visibility: 9mi
Dew Point: 45°   Wind: 15mph
Humidity: 93%   Direction: 10°N
Pressure: 29.66"   Gusts: 21mph
Location:  46.55°N, 66.12°W
Report Text: CYFC 241500Z AUTO 01013G18KT 9SM -RA OVC012 08/07 A2966 RMK SLP046
Loading
Personal Weather Stations






























Interactive Weather Map
Tropical Storm Tracking
New forecast layout! Learn more

10-Day Weather Forecast

Advertisements
Track Severe Weather on mobile